Latest Coastal Weather Observations for Bougainville Reef

IDQ60701

Issued at 7:42 am EST Friday 29 April 2016 (issued every 10 minutes, with the page automatically refreshed every 10 minutes)

About coastal observations | Map of coastal stations | Coastal observations for QLD | Marine services | Other Formats
Station Details ID: 200840 Name: BOUGAINVILLE REEF Lat: -15.49 Lon: 147.12 Height: 0.0 m
Data from the previous 72 hours. | See also: Recent months for locations in Queensland
Date/Time
EST
Temp

°C
Wind Pressure Rain
since 9am
mm
Weather Cloud Vis
km
Sea
Height
m
Swell
Dir
 
Speed
knots
Gust
knots
hPa Trend Height
m
Period
s
Dir
29/07:30am 27.8 ESE 20 24 1013.7 - - - - - - - - -
29/07:00am 27.5 SE 20 23 1013.1 - - - - - - - - -
29/06:30am 27.6 SE 20 23 1012.9 - - - - - - - - -
29/06:00am 27.7 SE 20 24 1012.3 - - - - - - - - -
29/05:30am 27.6 ESE 20 23 1012.0 - - - - - - - - -
29/05:00am 27.6 ESE 20 23 1011.8 - - - - - - - - -
29/04:30am 27.4 ESE 21 24 1011.8 - - - - - - - - -
29/04:00am 27.6 ESE 21 22 1011.7 - - - - - - - - -
29/03:30am 27.6 ESE 21 25 1011.7 - - - - - - - - -
29/03:00am 27.5 ESE 21 24 1011.7 - - - - - - - - -
29/02:30am 27.5 ESE 20 23 1012.0 - - - - - - - - -
29/02:00am 27.4 SE 21 24 1012.1 - - - - - - - - -
29/01:30am 27.6 SE 20 23 1012.3 - - - - - - - - -
29/01:00am 27.5 SE 20 23 1012.8 - - - - - - - - -
29/12:30am 27.3 ESE 21 23 1013.1 - - - - - - - - -
29/12:00am 27.5 ESE 21 23 1013.4 - - - - - - - - -
 
Date/Time
EST
Temp

°C
Wind Pressure Rain
since 9am
mm
Weather Cloud Vis
km
Sea
Height
m
Swell
Dir
 
Speed
knots
Gust
knots
hPa Trend Height
m
Period
s
Dir
28/11:30pm 27.5 ESE 21 23 1013.7 - - - - - - - - -
28/11:00pm 27.5 SE 21 23 1013.7 - - - - - - - - -
28/10:30pm 27.5 SE 21 25 1013.9 - - - - - - - - -
28/10:00pm 27.4 ESE 22 23 1013.7 - - - - - - - - -
28/09:30pm 27.6 ESE 22 25 1013.8 - - - - - - - - -
28/09:00pm 27.5 SE 21 24 1013.7 - - - - - - - - -
28/08:30pm 27.2 SE 22 25 1013.5 - - - - - - - - -
28/08:00pm 27.3 SE 21 25 1012.9 - - - - - - - - -
28/07:30pm 27.5 SE 21 24 1012.8 - - - - - - - - -
28/07:00pm 27.5 SE 21 24 1012.3 - - - - - - - - -
28/06:30pm 27.4 ESE 21 23 1012.1 - - - - - - - - -
28/06:00pm 27.1 ESE 19 22 1011.8 - - - - - - - - -
28/05:30pm 26.9 ESE 18 20 1011.7 - - - - - - - - -
28/05:00pm 26.4 ESE 17 19 1011.4 - - - - - - - - -
28/04:30pm 25.8 ESE 18 19 1011.4 - - - - - - - - -
28/04:00pm 25.5 ESE 21 23 1011.1 - - - - - - - - -
28/03:56pm 25.6 SE 20 24 1011.3 - - - - - - - - -
28/03:30pm 25.9 E 20 22 1011.1 - - - - - - - - -
28/03:00pm 27.8 ESE 19 24 1010.8 - - - - - - - - -
28/02:30pm 27.6 ESE 20 23 1010.9 - - - - - - - - -
28/02:00pm 27.6 ESE 20 23 1011.2 - - - - - - - - -
28/01:30pm 27.5 ESE 22 25 1011.4 - - - - - - - - -
28/01:00pm 27.2 SE 22 25 1011.5 - - - - - - - - -
28/12:30pm 27.2 SE 23 26 1011.8 - - - - - - - - -
28/12:00pm 27.4 SE 23 26 1012.1 - - - - - - - - -
28/11:30am 27.3 SE 24 27 1012.6 - - - - - - - - -
28/11:00am 27.2 ESE 24 26 1012.9 - - - - - - - - -
28/10:30am 27.2 SE 22 26 1013.2 - - - - - - - - -
28/10:00am 27.6 ESE 24 28 1013.2 - - - - - - - - -
28/09:30am 27.0 SE 26 30 1013.2 - - - - - - - - -
28/09:22am 26.6 ESE 23 28 1013.2 - - - - - - - - -
28/09:11am 25.7 E 22 35 1013.3 - - - - - - - - -
28/09:08am 26.3 ESE 20 35 1013.1 - - - - - - - - -
28/09:00am 26.8 SE 21 22 1012.9 - - - - - - - - -
28/08:30am 26.2 ESE 27 32 1012.7 - - - - - - - - -
28/08:16am 27.5 SE 24 34 1012.4 - - - - - - - - -
28/08:00am 27.0 SE 22 27 1012.1 - - - - - - - - -
28/07:30am 26.9 SE 24 28 1012.0 - - - - - - - - -
28/07:00am 27.1 SE 23 28 1011.5 - - - - - - - - -
28/06:30am 27.0 SE 23 28 1011.4 - - - - - - - - -
28/06:00am 26.7 SE 21 26 1011.0 - - - - - - - - -
28/05:00am 26.8 SE 26 30 1010.5 - - - - - - - - -
28/04:30am 26.9 ESE 24 28 1010.5 - - - - - - - - -
28/04:00am 26.8 SE 22 23 1010.5 - - - - - - - - -
28/03:30am 26.8 SE 22 25 1010.6 - - - - - - - - -
28/03:00am 26.4 SE 24 28 1010.5 - - - - - - - - -
28/02:30am 26.7 SE 24 28 1010.7 - - - - - - - - -
28/02:00am 26.2 SE 27 32 1010.8 - - - - - - - - -
28/01:30am 26.9 ESE 25 28 1011.1 - - - - - - - - -
28/01:00am 27.6 SE 24 28 1011.5 - - - - - - - - -
28/12:30am 27.5 SE 24 29 1011.8 - - - - - - - - -
28/12:00am 26.0 ESE 19 23 1012.2 - - - - - - - - -
 
Date/Time
EST
Temp

°C
Wind Pressure Rain
since 9am
mm
Weather Cloud Vis
km
Sea
Height
m
Swell
Dir
 
Speed
knots
Gust
knots
hPa Trend Height
m
Period
s
Dir
27/11:30pm 26.4 E 20 25 1012.4 - - - - - - - - -
27/11:25pm 26.3 E 22 26 1012.2 - - - - - - - - -
27/11:00pm 27.3 SE 23 27 1012.4 - - - - - - - - -
27/10:30pm 27.5 SE 24 27 1012.4 - - - - - - - - -
27/10:00pm 27.5 SE 23 26 1012.4 - - - - - - - - -
27/09:30pm 27.6 SE 23 27 1012.5 - - - - - - - - -
27/09:00pm 27.5 SE 24 27 1012.4 - - - - - - - - -
27/08:30pm 27.5 SE 23 26 1012.5 - - - - - - - - -
27/08:00pm 27.5 SE 22 27 1012.1 - - - - - - - - -
27/07:30pm 27.4 SE 22 25 1012.0 - - - - - - - - -
27/07:00pm 27.5 SE 21 26 1011.6 - - - - - - - - -
27/06:30pm 27.5 SE 21 25 1011.5 - - - - - - - - -
27/06:00pm 27.5 SE 20 24 1011.0 - - - - - - - - -
27/05:30pm 27.4 SE 21 24 1010.8 - - - - - - - - -
27/05:00pm 27.4 SE 19 23 1010.4 - - - - - - - - -
27/04:30pm 27.5 SE 19 22 1010.5 - - - - - - - - -
27/04:00pm 27.5 SE 19 21 1010.0 - - - - - - - - -
27/03:30pm 27.6 SE 20 23 1010.1 - - - - - - - - -
27/03:00pm 26.7 ESE 20 17 1010.1 - - - - - - - - -
27/02:30pm 26.3 ESE 24 27 1010.2 - - - - - - - - -
27/02:00pm 27.6 SE 21 25 1010.5 - - - - - - - - -
27/01:30pm 27.6 SE 20 23 1010.8 - - - - - - - - -
27/01:00pm 27.6 SE 20 23 1011.4 - - - - - - - - -
27/12:30pm 27.6 SE 20 24 1011.7 - - - - - - - - -
27/12:00pm 27.8 SE 20 22 1012.2 - - - - - - - - -
27/11:30am 27.8 ESE 20 23 1012.4 - - - - - - - - -
27/11:00am 27.6 ESE 19 22 1012.6 - - - - - - - - -
27/10:30am 27.8 ESE 21 25 1012.9 - - - - - - - - -
27/10:00am 27.7 ESE 23 23 1012.9 - - - - - - - - -
27/09:30am 27.8 SE 23 26 1013.0 - - - - - - - - -
27/09:00am 27.7 SE 23 25 1012.6 - - - - - - - - -
27/08:30am 27.7 SE 23 26 1012.5 - - - - - - - - -
27/08:00am 27.6 ESE 23 25 1012.3 - - - - - - - - -
27/07:30am 27.5 SE 22 26 1012.2 - - - - - - - - -
27/07:00am 27.4 SE 24 27 1011.6 - - - - - - - - -
27/06:30am 27.3 SE 23 27 1011.6 - - - - - - - - -
27/06:00am 27.3 SE 23 26 1011.1 - - - - - - - - -
27/05:30am 27.4 SE 24 27 1010.9 - - - - - - - - -
27/05:00am 27.3 SE 23 28 1010.3 - - - - - - - - -
27/04:30am 27.2 SE 25 28 1010.3 - - - - - - - - -
27/04:00am 27.2 SE 24 29 1010.4 - - - - - - - - -
27/03:30am 27.1 SE 25 29 1010.5 - - - - - - - - -
27/03:00am 27.4 SE 25 28 1010.7 - - - - - - - - -
27/02:30am 27.2 SE 27 31 1010.8 - - - - - - - - -
27/02:00am 27.3 SE 25 28 1011.1 - - - - - - - - -
27/01:30am 27.4 SE 27 31 1011.2 - - - - - - - - -
27/01:00am 27.3 SE 27 31 1011.4 - - - - - - - - -
27/12:30am 27.3 SE 28 31 1011.6 - - - - - - - - -
27/12:00am 27.3 SE 27 31 1011.9 - - - - - - - - -
 
Date/Time
EST
Temp

°C
Wind Pressure Rain
since 9am
mm
Weather Cloud Vis
km
Sea
Height
m
Swell
Dir
 
Speed
knots
Gust
knots
hPa Trend Height
m
Period
s
Dir
26/11:30pm 27.5 SE 27 32 1011.9 - - - - - - - - -
26/11:00pm 27.0 SSE 26 31 1012.4 - - - - - - - - -
26/10:30pm 27.0 SE 28 32 1012.6 - - - - - - - - -
26/10:00pm 27.3 SE 28 33 1012.6 - - - - - - - - -
26/09:30pm 27.3 SE 28 32 1012.9 - - - - - - - - -
26/09:00pm 27.0 SE 26 30 1012.9 - - - - - - - - -
26/08:30pm 26.9 SE 27 32 1013.1 - - - - - - - - -
26/08:00pm 27.3 SE 26 32 1012.7 - - - - - - - - -
26/07:30pm 27.4 SE 26 30 1012.6 - - - - - - - - -
26/07:00pm 27.3 SE 26 31 1012.4 - - - - - - - - -
26/06:30pm 27.1 SE 27 30 1012.3 - - - - - - - - -
26/06:00pm 27.1 SE 25 28 1012.3 - - - - - - - - -
26/05:30pm 26.9 SE 26 30 1012.3 - - - - - - - - -
26/05:00pm 26.1 SE 29 32 1011.9 - - - - - - - - -
26/04:30pm 26.7 SE 26 30 1011.9 - - - - - - - - -
26/04:00pm 27.0 SE 25 30 1011.5 - - - - - - - - -
26/03:30pm 26.8 SE 24 30 1011.5 - - - - - - - - -
26/03:00pm 26.5 SE 25 30 1011.4 - - - - - - - - -
26/02:30pm 26.3 SE 27 30 1011.6 - - - - - - - - -
26/02:00pm 26.7 SE 23 28 1011.6 - - - - - - - - -
26/01:30pm 26.1 ESE 25 32 1011.9 - - - - - - - - -
26/01:00pm 27.6 SE 25 30 1012.2 - - - - - - - - -
26/12:30pm 27.4 SE 26 30 1012.5 - - - - - - - - -
26/12:00pm 27.5 ESE 26 29 1013.0 - - - - - - - - -
26/11:30am 27.4 SE 26 31 1013.2 - - - - - - - - -
26/11:00am 27.1 SE 25 30 1013.5 - - - - - - - - -
26/10:30am 27.4 SE 26 30 1013.7 - - - - - - - - -
26/10:00am 27.5 SE 26 32 1013.7 - - - - - - - - -
26/09:30am 27.5 SE 26 30 1013.8 - - - - - - - - -
26/09:00am 27.4 SE 24 30 1013.6 - - - - - - - - -
26/08:30am 27.3 SE 27 30 1013.3 - - - - - - - - -
26/08:00am 27.4 SE 27 33 1012.7 - - - - - - - - -

Other Formats:

Comma delimited format used in spreadsheet applications
http://www.bom.gov.au/fwo/IDQ60701/IDQ60701.95288.axf

JavaScript Object Notation format (JSON) in row-major order
http://www.bom.gov.au/fwo/IDQ60701/IDQ60701.95288.json